Airfield :
LOGIN :

Register | Disclaimer

   EN    FR    IT 

 










Legend :    VFR   Marginal VFR   IFR   Intensive IFR   Very Intensive IFR
Visi :
Ceiling :
>= 8 km
>= 3000ft
5 to 8 km
1000 to 3000 ft
1500m to 5 km
500 to 1000 ft
800 to 1500m
200 to 500 ft
< 800m
< 200 ft
Symbols :   Thunderstorms  Fog  Heavy snow  Heavy precipitations  Wind > 20 kt
SIGMETs :     Misc.  Thunderstorms  Icing  Turbulence  Mountain Waves  Volcanic Ashes







- Airport Elevation : 1299 ft


EDTY - Adolf Würth

CURRENT METAR :
  • 250950Z 15004KT 060V200 CAVOK 27/18 Q1021

EXPIRED METARs :
  • 250920Z 16004KT 090V240 CAVOK 27/18 Q1021
  • 250850Z 10006KT 060V170 CAVOK 26/18 Q1021
  • 250820Z 10006KT 060V140 CAVOK 25/17 Q1021
  • 250750Z 10007KT CAVOK 24/18 Q1021
  • 250720Z 11007KT CAVOK 23/16 Q1021

TAF TAF EDTY
Valid from the 25 at 09:00 until the 25 at 18:00 UTC


250800Z 2509/2518 10005KT CAVOK
No reported NOTAMs for that airfield.



MET'MAP, your aeronautical weather chart ! - Copyright ORBIFLY December 2007 - Disclaimer

ORBIFLY MET'MAP TEAM :

Programming & Development : Alexandra Zaïnal
Concept & Development : Baudouin d'Aumeries
Co-Development & Prog : Marc-Olivier Méhu
Technical & hardware support : Manuel Goepfert

Contact : metmap@orbifly.com




SOURCES & CREDITS :

   NOAA